sensor_id;sensor_type;location;lat;lon;timestamp;pressure;altitude;pressure_sealevel;temperature;humidity
45285;BME280;31026;43.780;25.948;2022-08-06T00:01:43;100491.31;;;25.63;53.32
45285;BME280;31026;43.780;25.948;2022-08-06T00:04:11;100492.81;;;25.66;53.37
45285;BME280;31026;43.780;25.948;2022-08-06T00:06:39;100504.03;;;25.63;53.79
45285;BME280;31026;43.780;25.948;2022-08-06T00:09:08;100490.19;;;25.57;53.51
45285;BME280;31026;43.780;25.948;2022-08-06T00:11:39;100496.25;;;25.59;53.64
45285;BME280;31026;43.780;25.948;2022-08-06T00:14:08;100496.25;;;25.59;53.76
45285;BME280;31026;43.780;25.948;2022-08-06T00:16:37;100492.16;;;25.64;53.78
45285;BME280;31026;43.780;25.948;2022-08-06T00:19:05;100498.41;;;25.64;53.99
45285;BME280;31026;43.780;25.948;2022-08-06T00:21:33;100488.59;;;25.63;53.60
45285;BME280;31026;43.780;25.948;2022-08-06T00:24:02;100496.44;;;25.58;53.61
45285;BME280;31026;43.780;25.948;2022-08-06T00:26:30;100495.78;;;25.56;53.46
45285;BME280;31026;43.780;25.948;2022-08-06T00:29:01;100505.22;;;25.60;54.13
45285;BME280;31026;43.780;25.948;2022-08-06T00:31:30;100498.31;;;25.57;53.78
45285;BME280;31026;43.780;25.948;2022-08-06T00:33:58;100502.50;;;25.60;53.73
45285;BME280;31026;43.780;25.948;2022-08-06T00:36:29;100483.28;;;25.55;54.15
45285;BME280;31026;43.780;25.948;2022-08-06T00:38:59;100497.47;;;25.57;53.73
45285;BME280;31026;43.780;25.948;2022-08-06T00:41:28;100492.81;;;25.51;53.86
45285;BME280;31026;43.780;25.948;2022-08-06T00:43:56;100485.34;;;25.53;53.73
45285;BME280;31026;43.780;25.948;2022-08-06T00:46:27;100504.28;;;25.53;53.99
45285;BME280;31026;43.780;25.948;2022-08-06T00:48:56;100501.84;;;25.58;54.05
45285;BME280;31026;43.780;25.948;2022-08-06T00:51:24;100491.50;;;25.62;54.17
45285;BME280;31026;43.780;25.948;2022-08-06T00:53:53;100508.22;;;25.65;54.32
45285;BME280;31026;43.780;25.948;2022-08-06T00:56:21;100498.78;;;25.61;54.16
45285;BME280;31026;43.780;25.948;2022-08-06T00:58:50;100506.25;;;25.59;54.59
45285;BME280;31026;43.780;25.948;2022-08-06T01:01:18;100510.81;;;25.58;54.41
45285;BME280;31026;43.780;25.948;2022-08-06T01:03:49;100493.16;;;25.48;54.66
45285;BME280;31026;43.780;25.948;2022-08-06T01:06:17;100507.00;;;25.53;54.35
45285;BME280;31026;43.780;25.948;2022-08-06T01:08:46;100507.25;;;25.58;54.15
45285;BME280;31026;43.780;25.948;2022-08-06T01:11:14;100517.09;;;25.59;54.33
45285;BME280;31026;43.780;25.948;2022-08-06T01:13:42;100502.41;;;25.53;54.15
45285;BME280;31026;43.780;25.948;2022-08-06T01:16:12;100504.66;;;25.50;54.40
45285;BME280;31026;43.780;25.948;2022-08-06T01:18:45;100494.28;;;25.53;54.34
45285;BME280;31026;43.780;25.948;2022-08-06T01:21:23;100493.06;;;25.56;54.19
45285;BME280;31026;43.780;25.948;2022-08-06T01:24:02;100499.88;;;25.52;54.41
45285;BME280;31026;43.780;25.948;2022-08-06T01:26:38;100491.94;;;25.50;54.21
45285;BME280;31026;43.780;25.948;2022-08-06T01:29:11;100487.19;;;25.52;54.21
45285;BME280;31026;43.780;25.948;2022-08-06T01:31:45;100486.63;;;25.42;54.18
45285;BME280;31026;43.780;25.948;2022-08-06T01:34:17;100494.75;;;25.42;53.99
45285;BME280;31026;43.780;25.948;2022-08-06T01:36:48;100492.22;;;25.40;53.86
45285;BME280;31026;43.780;25.948;2022-08-06T01:39:18;100500.53;;;25.39;54.22
45285;BME280;31026;43.780;25.948;2022-08-06T01:41:49;100496.13;;;25.38;54.29
45285;BME280;31026;43.780;25.948;2022-08-06T01:44:22;100481.78;;;25.37;53.99
45285;BME280;31026;43.780;25.948;2022-08-06T01:46:52;100496.44;;;25.43;53.89
45285;BME280;31026;43.780;25.948;2022-08-06T01:49:23;100493.25;;;25.39;53.84
45285;BME280;31026;43.780;25.948;2022-08-06T01:51:52;100508.84;;;25.37;53.98
45285;BME280;31026;43.780;25.948;2022-08-06T01:54:22;100486.44;;;25.44;54.18
45285;BME280;31026;43.780;25.948;2022-08-06T01:56:52;100498.75;;;25.46;54.61
45285;BME280;31026;43.780;25.948;2022-08-06T01:59:24;100491.19;;;25.42;54.29
45285;BME280;31026;43.780;25.948;2022-08-06T02:01:54;100492.22;;;25.40;54.13
45285;BME280;31026;43.780;25.948;2022-08-06T02:04:25;100491.19;;;25.42;54.14
45285;BME280;31026;43.780;25.948;2022-08-06T02:06:54;100494.25;;;25.24;55.04
45285;BME280;31026;43.780;25.948;2022-08-06T02:09:23;100485.94;;;25.25;54.94
45285;BME280;31026;43.780;25.948;2022-08-06T02:11:53;100495.88;;;25.33;54.37
45285;BME280;31026;43.780;25.948;2022-08-06T02:14:25;100491.03;;;25.43;54.54
45285;BME280;31026;43.780;25.948;2022-08-06T02:16:55;100488.41;;;25.35;54.81
45285;BME280;31026;43.780;25.948;2022-08-06T02:19:26;100491.63;;;25.30;54.86
45285;BME280;31026;43.780;25.948;2022-08-06T02:21:57;100490.81;;;25.30;54.46
45285;BME280;31026;43.780;25.948;2022-08-06T02:24:28;100495.66;;;25.34;54.45
45285;BME280;31026;43.780;25.948;2022-08-06T02:26:58;100500.88;;;25.36;54.56
45285;BME280;31026;43.780;25.948;2022-08-06T02:29:30;100497.72;;;25.32;54.37
45285;BME280;31026;43.780;25.948;2022-08-06T02:31:59;100488.09;;;25.30;54.43
45285;BME280;31026;43.780;25.948;2022-08-06T02:34:28;100516.78;;;25.39;54.37
45285;BME280;31026;43.780;25.948;2022-08-06T02:36:57;100502.13;;;25.33;54.14
45285;BME280;31026;43.780;25.948;2022-08-06T02:39:28;100500.19;;;25.19;54.64
45285;BME280;31026;43.780;25.948;2022-08-06T02:42:00;100501.16;;;25.26;54.38
45285;BME280;31026;43.780;25.948;2022-08-06T02:44:36;100496.97;;;25.24;54.24
45285;BME280;31026;43.780;25.948;2022-08-06T02:47:08;100483.72;;;25.29;54.36
45285;BME280;31026;43.780;25.948;2022-08-06T02:49:38;100494.56;;;25.29;54.05
45285;BME280;31026;43.780;25.948;2022-08-06T02:52:10;100494.56;;;25.29;54.20
45285;BME280;31026;43.780;25.948;2022-08-06T02:54:42;100497.25;;;25.29;54.38
45285;BME280;31026;43.780;25.948;2022-08-06T02:57:12;100500.78;;;25.29;54.46
45285;BME280;31026;43.780;25.948;2022-08-06T02:59:45;100511.25;;;25.32;54.19
45285;BME280;31026;43.780;25.948;2022-08-06T03:02:15;100504.50;;;25.28;54.30
45285;BME280;31026;43.780;25.948;2022-08-06T03:04:46;100502.38;;;25.24;54.33
45285;BME280;31026;43.780;25.948;2022-08-06T03:07:16;100511.25;;;25.32;53.94
45285;BME280;31026;43.780;25.948;2022-08-06T03:09:45;100501.53;;;25.23;54.24
45285;BME280;31026;43.780;25.948;2022-08-06T03:12:15;100502.03;;;25.18;54.23
45285;BME280;31026;43.780;25.948;2022-08-06T03:14:46;100517.09;;;25.21;54.03
45285;BME280;31026;43.780;25.948;2022-08-06T03:17:15;100513.28;;;25.30;54.01
45285;BME280;31026;43.780;25.948;2022-08-06T03:19:44;100519.78;;;25.21;54.15
45285;BME280;31026;43.780;25.948;2022-08-06T03:22:14;100509.81;;;25.22;54.46
45285;BME280;31026;43.780;25.948;2022-08-06T03:24:43;100515.47;;;25.12;54.38
45285;BME280;31026;43.780;25.948;2022-08-06T03:27:15;100505.78;;;25.17;54.27
45285;BME280;31026;43.780;25.948;2022-08-06T03:29:47;100509.31;;;25.18;54.84
45285;BME280;31026;43.780;25.948;2022-08-06T03:32:16;100525.94;;;25.15;54.95
45285;BME280;31026;43.780;25.948;2022-08-06T03:34:45;100518.81;;;25.14;54.79
45285;BME280;31026;43.780;25.948;2022-08-06T03:37:15;100520.69;;;25.13;54.68
45285;BME280;31026;43.780;25.948;2022-08-06T03:39:45;100535.41;;;25.11;54.76
45285;BME280;31026;43.780;25.948;2022-08-06T03:42:14;100517.16;;;25.13;54.80
45285;BME280;31026;43.780;25.948;2022-08-06T03:44:42;100516.38;;;25.04;54.62
45285;BME280;31026;43.780;25.948;2022-08-06T03:47:28;100512.81;;;25.04;54.72
45285;BME280;31026;43.780;25.948;2022-08-06T03:50:00;100509.56;;;25.08;54.58
45285;BME280;31026;43.780;25.948;2022-08-06T03:52:30;100515.47;;;25.12;54.36
45285;BME280;31026;43.780;25.948;2022-08-06T03:55:02;100525.38;;;25.19;54.27
45285;BME280;31026;43.780;25.948;2022-08-06T03:57:32;100528.09;;;25.19;54.36
45285;BME280;31026;43.780;25.948;2022-08-06T04:00:01;100525.56;;;25.18;54.37
45285;BME280;31026;43.780;25.948;2022-08-06T04:02:34;100521.50;;;25.22;54.50
45285;BME280;31026;43.780;25.948;2022-08-06T04:05:03;100527.28;;;25.11;54.49
45285;BME280;31026;43.780;25.948;2022-08-06T04:07:33;100529.81;;;25.12;54.31
45285;BME280;31026;43.780;25.948;2022-08-06T04:10:03;100525.06;;;25.14;54.32
45285;BME280;31026;43.780;25.948;2022-08-06T04:12:32;100531.63;;;25.20;54.30
45285;BME280;31026;43.780;25.948;2022-08-06T04:15:01;100539.16;;;25.10;54.60
45285;BME280;31026;43.780;25.948;2022-08-06T04:17:33;100524.25;;;25.14;54.32
45285;BME280;31026;43.780;25.948;2022-08-06T04:20:02;100533.00;;;25.16;54.27
45285;BME280;31026;43.780;25.948;2022-08-06T04:22:30;100546.84;;;25.21;54.39
45285;BME280;31026;43.780;25.948;2022-08-06T04:24:59;100537.88;;;25.20;54.21
45285;BME280;31026;43.780;25.948;2022-08-06T04:27:28;100532.19;;;25.15;54.40
45285;BME280;31026;43.780;25.948;2022-08-06T04:29:57;100553.97;;;25.22;54.66
45285;BME280;31026;43.780;25.948;2022-08-06T04:32:27;100543.00;;;25.15;54.32
45285;BME280;31026;43.780;25.948;2022-08-06T04:34:59;100550.25;;;25.23;54.79
45285;BME280;31026;43.780;25.948;2022-08-06T04:37:29;100537.16;;;25.27;54.98
45285;BME280;31026;43.780;25.948;2022-08-06T04:39:58;100536.50;;;25.25;54.23
45285;BME280;31026;43.780;25.948;2022-08-06T04:42:27;100551.19;;;25.30;54.75
45285;BME280;31026;43.780;25.948;2022-08-06T04:44:56;100542.16;;;25.38;54.82
45285;BME280;31026;43.780;25.948;2022-08-06T04:47:26;100540.38;;;25.07;55.61
45285;BME280;31026;43.780;25.948;2022-08-06T04:49:55;100562.66;;;25.09;55.41
45285;BME280;31026;43.780;25.948;2022-08-06T04:52:26;100560.22;;;25.23;55.13
45285;BME280;31026;43.780;25.948;2022-08-06T04:54:55;100541.50;;;25.36;54.74
45285;BME280;31026;43.780;25.948;2022-08-06T04:57:23;100546.00;;;25.20;55.10
45285;BME280;31026;43.780;25.948;2022-08-06T04:59:52;100546.06;;;25.35;54.87
45285;BME280;31026;43.780;25.948;2022-08-06T05:02:20;100541.00;;;25.32;54.78
45285;BME280;31026;43.780;25.948;2022-08-06T05:04:49;100538.31;;;25.32;54.91
45285;BME280;31026;43.780;25.948;2022-08-06T05:07:22;100547.75;;;25.36;55.15
45285;BME280;31026;43.780;25.948;2022-08-06T05:09:55;100554.69;;;25.39;54.98
45285;BME280;31026;43.780;25.948;2022-08-06T05:12:25;100557.91;;;25.34;54.93
45285;BME280;31026;43.780;25.948;2022-08-06T05:14:54;100547.38;;;25.39;54.76
45285;BME280;31026;43.780;25.948;2022-08-06T05:17:24;100549.06;;;25.40;55.34
45285;BME280;31026;43.780;25.948;2022-08-06T05:19:57;100537.56;;;25.38;55.22
45285;BME280;31026;43.780;25.948;2022-08-06T05:22:26;100538.88;;;25.43;54.99
45285;BME280;31026;43.780;25.948;2022-08-06T05:24:58;100542.81;;;25.40;55.41
45285;BME280;31026;43.780;25.948;2022-08-06T05:27:26;100534.16;;;25.45;55.11
45285;BME280;31026;43.780;25.948;2022-08-06T05:29:55;100533.69;;;25.41;55.16
45285;BME280;31026;43.780;25.948;2022-08-06T05:32:24;100532.47;;;25.44;55.19
45285;BME280;31026;43.780;25.948;2022-08-06T05:34:52;100546.47;;;25.47;55.40
45285;BME280;31026;43.780;25.948;2022-08-06T05:37:21;100534.72;;;25.55;55.34
45285;BME280;31026;43.780;25.948;2022-08-06T05:39:49;100559.75;;;25.57;55.03
45285;BME280;31026;43.780;25.948;2022-08-06T05:42:21;100549.94;;;25.56;55.24
45285;BME280;31026;43.780;25.948;2022-08-06T05:44:49;100557.69;;;25.59;55.34
45285;BME280;31026;43.780;25.948;2022-08-06T05:47:18;100539.94;;;25.56;55.46
45285;BME280;31026;43.780;25.948;2022-08-06T05:49:48;100536.47;;;25.48;56.11
45285;BME280;31026;43.780;25.948;2022-08-06T05:52:18;100545.66;;;25.47;55.96
45285;BME280;31026;43.780;25.948;2022-08-06T05:54:48;100548.53;;;25.45;55.97
45285;BME280;31026;43.780;25.948;2022-08-06T05:57:23;100538.75;;;25.59;55.93
45285;BME280;31026;43.780;25.948;2022-08-06T05:59:54;100542.13;;;25.61;56.15
45285;BME280;31026;43.780;25.948;2022-08-06T06:02:25;100553.78;;;25.76;55.59
45285;BME280;31026;43.780;25.948;2022-08-06T06:04:54;100535.50;;;25.78;55.33
45285;BME280;31026;43.780;25.948;2022-08-06T06:07:23;100537.81;;;25.82;55.53
45285;BME280;31026;43.780;25.948;2022-08-06T06:09:51;100527.16;;;25.80;56.71
45285;BME280;31026;43.780;25.948;2022-08-06T06:12:24;100521.09;;;25.78;57.81
45285;BME280;31026;43.780;25.948;2022-08-06T06:14:53;100533.63;;;25.79;57.33
45285;BME280;31026;43.780;25.948;2022-08-06T06:17:35;100540.53;;;25.82;57.24
45285;BME280;31026;43.780;25.948;2022-08-06T06:20:16;100538.78;;;25.89;57.53
45285;BME280;31026;43.780;25.948;2022-08-06T06:22:47;100541.66;;;25.87;57.26
45285;BME280;31026;43.780;25.948;2022-08-06T06:25:19;100518.09;;;25.88;57.80
45285;BME280;31026;43.780;25.948;2022-08-06T06:27:53;100512.63;;;25.81;57.79
45285;BME280;31026;43.780;25.948;2022-08-06T06:30:24;100514.94;;;25.84;57.89
45285;BME280;31026;43.780;25.948;2022-08-06T06:32:57;100524.56;;;25.87;57.60
45285;BME280;31026;43.780;25.948;2022-08-06T06:35:29;100523.72;;;25.86;57.88
45285;BME280;31026;43.780;25.948;2022-08-06T06:38:03;100504.09;;;25.84;57.63
45285;BME280;31026;43.780;25.948;2022-08-06T06:40:40;100513.44;;;25.82;57.92
45285;BME280;31026;43.780;25.948;2022-08-06T06:43:15;100536.41;;;25.86;58.33
45285;BME280;31026;43.780;25.948;2022-08-06T06:45:47;100535.41;;;25.87;57.95
45285;BME280;31026;43.780;25.948;2022-08-06T06:48:16;100512.88;;;25.86;58.24
45285;BME280;31026;43.780;25.948;2022-08-06T06:50:47;100520.34;;;25.84;58.08
45285;BME280;31026;43.780;25.948;2022-08-06T06:53:17;100516.16;;;25.82;58.18
45285;BME280;31026;43.780;25.948;2022-08-06T06:55:46;100513.44;;;25.82;58.53
45285;BME280;31026;43.780;25.948;2022-08-06T06:58:20;100507.38;;;25.79;58.59
45285;BME280;31026;43.780;25.948;2022-08-06T07:00:50;100511.38;;;25.84;58.48
45285;BME280;31026;43.780;25.948;2022-08-06T07:03:19;100527.00;;;25.82;58.70
45285;BME280;31026;43.780;25.948;2022-08-06T07:05:48;100523.72;;;25.86;58.47
45285;BME280;31026;43.780;25.948;2022-08-06T07:08:18;100544.53;;;25.86;58.60
45285;BME280;31026;43.780;25.948;2022-08-06T07:10:48;100518.69;;;25.83;58.36
45285;BME280;31026;43.780;25.948;2022-08-06T07:13:20;100527.47;;;25.85;58.61
45285;BME280;31026;43.780;25.948;2022-08-06T07:15:52;100513.38;;;25.22;58.57
45285;BME280;31026;43.780;25.948;2022-08-06T07:18:23;100524.63;;;24.88;56.60
45285;BME280;31026;43.780;25.948;2022-08-06T07:20:53;100536.06;;;24.35;55.85
45285;BME280;31026;43.780;25.948;2022-08-06T07:23:23;100519.09;;;24.10;54.28
45285;BME280;31026;43.780;25.948;2022-08-06T07:25:53;100512.00;;;24.09;53.17
45285;BME280;31026;43.780;25.948;2022-08-06T07:28:25;100519.47;;;23.99;51.79
45285;BME280;31026;43.780;25.948;2022-08-06T07:30:55;100520.88;;;23.87;50.53
45285;BME280;31026;43.780;25.948;2022-08-06T07:33:23;100527.00;;;23.64;50.15
45285;BME280;31026;43.780;25.948;2022-08-06T07:35:52;100537.81;;;23.56;50.39
45285;BME280;31026;43.780;25.948;2022-08-06T07:38:21;100544.38;;;23.78;50.68
45285;BME280;31026;43.780;25.948;2022-08-06T07:40:50;100520.91;;;23.78;50.85
45285;BME280;31026;43.780;25.948;2022-08-06T07:43:21;100528.47;;;23.75;50.95
45285;BME280;31026;43.780;25.948;2022-08-06T07:45:54;100536.78;;;23.81;50.86
45285;BME280;31026;43.780;25.948;2022-08-06T07:48:26;100536.41;;;23.76;50.71
45285;BME280;31026;43.780;25.948;2022-08-06T07:50:55;100518.50;;;23.75;49.98
45285;BME280;31026;43.780;25.948;2022-08-06T07:53:25;100532.41;;;23.64;50.67
45285;BME280;31026;43.780;25.948;2022-08-06T07:55:54;100519.22;;;23.61;50.36
45285;BME280;31026;43.780;25.948;2022-08-06T07:58:24;100522.63;;;23.55;50.50
45285;BME280;31026;43.780;25.948;2022-08-06T08:00:56;100502.56;;;24.05;52.76
45285;BME280;31026;43.780;25.948;2022-08-06T08:03:24;100518.38;;;24.25;53.74
45285;BME280;31026;43.780;25.948;2022-08-06T08:06:05;100510.41;;;24.31;52.82
45285;BME280;31026;43.780;25.948;2022-08-06T08:08:48;100525.19;;;24.12;52.54
45285;BME280;31026;43.780;25.948;2022-08-06T08:11:17;100525.50;;;24.17;52.53
45285;BME280;31026;43.780;25.948;2022-08-06T08:13:46;100503.19;;;24.24;52.69
45285;BME280;31026;43.780;25.948;2022-08-06T08:16:17;100512.75;;;24.34;53.74
45285;BME280;31026;43.780;25.948;2022-08-06T08:18:46;100518.28;;;24.41;54.96
45285;BME280;31026;43.780;25.948;2022-08-06T08:21:15;100521.44;;;24.53;55.64
45285;BME280;31026;43.780;25.948;2022-08-06T08:23:44;100506.09;;;24.53;56.52
45285;BME280;31026;43.780;25.948;2022-08-06T08:26:14;100517.91;;;24.52;56.97
45285;BME280;31026;43.780;25.948;2022-08-06T08:28:42;100514.88;;;24.47;58.06
45285;BME280;31026;43.780;25.948;2022-08-06T08:31:11;100520.03;;;24.34;58.93
45285;BME280;31026;43.780;25.948;2022-08-06T08:33:42;100512.69;;;24.51;58.73
45285;BME280;31026;43.780;25.948;2022-08-06T08:36:11;100508.66;;;24.38;59.73
45285;BME280;31026;43.780;25.948;2022-08-06T08:38:39;100506.50;;;24.34;60.01
45285;BME280;31026;43.780;25.948;2022-08-06T08:41:08;100510.00;;;24.42;60.36
45285;BME280;31026;43.780;25.948;2022-08-06T08:43:42;100499.66;;;24.46;60.03
45285;BME280;31026;43.780;25.948;2022-08-06T08:46:11;100513.34;;;24.45;60.42
45285;BME280;31026;43.780;25.948;2022-08-06T08:48:43;100507.00;;;24.37;59.99
45285;BME280;31026;43.780;25.948;2022-08-06T08:51:12;100500.03;;;24.51;59.05
45285;BME280;31026;43.780;25.948;2022-08-06T08:53:42;100500.81;;;24.60;59.03
45285;BME280;31026;43.780;25.948;2022-08-06T08:56:12;100509.97;;;24.51;59.82
45285;BME280;31026;43.780;25.948;2022-08-06T08:58:41;100497.38;;;24.35;60.22
45285;BME280;31026;43.780;25.948;2022-08-06T09:01:10;100499.34;;;24.41;60.04
45285;BME280;31026;43.780;25.948;2022-08-06T09:03:39;100509.81;;;24.52;59.97
45285;BME280;31026;43.780;25.948;2022-08-06T09:06:10;100500.16;;;24.50;60.05
45285;BME280;31026;43.780;25.948;2022-08-06T09:08:39;100506.44;;;24.50;59.75
45285;BME280;31026;43.780;25.948;2022-08-06T09:11:08;100498.03;;;24.37;60.34
45285;BME280;31026;43.780;25.948;2022-08-06T09:13:37;100497.78;;;24.55;59.13
45285;BME280;31026;43.780;25.948;2022-08-06T09:16:05;100495.06;;;24.63;58.51
45285;BME280;31026;43.780;25.948;2022-08-06T09:18:34;100488.28;;;24.59;58.48
45285;BME280;31026;43.780;25.948;2022-08-06T09:21:03;100490.81;;;24.60;58.21
45285;BME280;31026;43.780;25.948;2022-08-06T09:23:35;100486.50;;;24.51;58.38
45285;BME280;31026;43.780;25.948;2022-08-06T09:26:05;100482.44;;;24.55;58.03
45285;BME280;31026;43.780;25.948;2022-08-06T09:28:34;100481.09;;;24.51;58.23
45285;BME280;31026;43.780;25.948;2022-08-06T09:31:04;100493.03;;;24.57;58.17
45285;BME280;31026;43.780;25.948;2022-08-06T09:33:34;100498.75;;;24.62;57.84
45285;BME280;31026;43.780;25.948;2022-08-06T09:36:03;100491.91;;;24.51;58.12
45285;BME280;31026;43.780;25.948;2022-08-06T09:38:44;100489.50;;;24.56;57.66
45285;BME280;31026;43.780;25.948;2022-08-06T09:41:13;100475.31;;;24.54;57.68
45285;BME280;31026;43.780;25.948;2022-08-06T09:43:43;100471.81;;;24.46;57.55
45285;BME280;31026;43.780;25.948;2022-08-06T09:46:12;100488.50;;;24.57;57.68
45285;BME280;31026;43.780;25.948;2022-08-06T09:48:55;100481.09;;;24.51;57.60
45285;BME280;31026;43.780;25.948;2022-08-06T09:51:24;100484.00;;;24.41;57.80
45285;BME280;31026;43.780;25.948;2022-08-06T09:53:55;100473.47;;;24.47;57.50
45285;BME280;31026;43.780;25.948;2022-08-06T09:56:24;100477.38;;;24.44;57.42
45285;BME280;31026;43.780;25.948;2022-08-06T09:58:56;100467.59;;;24.43;57.44
45285;BME280;31026;43.780;25.948;2022-08-06T10:01:25;100485.16;;;24.47;57.33
45285;BME280;31026;43.780;25.948;2022-08-06T10:03:54;100463.69;;;24.46;57.37
45285;BME280;31026;43.780;25.948;2022-08-06T10:06:23;100467.41;;;24.45;57.23
45285;BME280;31026;43.780;25.948;2022-08-06T10:09:07;100469.59;;;24.49;57.53
45285;BME280;31026;43.780;25.948;2022-08-06T10:11:36;100454.22;;;24.50;57.43
45285;BME280;31026;43.780;25.948;2022-08-06T10:14:05;100473.47;;;24.47;57.34
45285;BME280;31026;43.780;25.948;2022-08-06T10:16:34;100475.69;;;24.51;57.38
45285;BME280;31026;43.780;25.948;2022-08-06T10:19:02;100470.28;;;24.51;57.27
45285;BME280;31026;43.780;25.948;2022-08-06T10:21:33;100466.03;;;24.49;57.50
45285;BME280;31026;43.780;25.948;2022-08-06T10:24:02;100465.72;;;24.52;57.20
45285;BME280;31026;43.780;25.948;2022-08-06T10:26:33;100458.97;;;24.48;56.97
45285;BME280;31026;43.780;25.948;2022-08-06T10:29:02;100458.47;;;24.44;57.37
45285;BME280;31026;43.780;25.948;2022-08-06T10:31:31;100463.88;;;24.44;57.31
45285;BME280;31026;43.780;25.948;2022-08-06T10:34:00;100458.13;;;24.47;56.97
45285;BME280;31026;43.780;25.948;2022-08-06T10:36:31;100442.75;;;24.48;56.64
45285;BME280;31026;43.780;25.948;2022-08-06T10:39:03;100438.72;;;24.44;56.94
45285;BME280;31026;43.780;25.948;2022-08-06T10:41:35;100451.56;;;24.41;57.14
45285;BME280;31026;43.780;25.948;2022-08-06T10:44:05;100444.94;;;24.44;56.99
45285;BME280;31026;43.780;25.948;2022-08-06T10:46:34;100444.13;;;24.44;57.09
45285;BME280;31026;43.780;25.948;2022-08-06T10:49:03;100436.66;;;24.46;56.79
45285;BME280;31026;43.780;25.948;2022-08-06T10:51:33;100435.16;;;24.43;56.98
45285;BME280;31026;43.780;25.948;2022-08-06T10:54:02;100444.25;;;24.50;56.69
45285;BME280;31026;43.780;25.948;2022-08-06T10:56:31;100432.94;;;24.47;56.56
45285;BME280;31026;43.780;25.948;2022-08-06T10:59:02;100436.50;;;24.47;56.73
45285;BME280;31026;43.780;25.948;2022-08-06T11:01:31;100422.84;;;24.40;57.17
45285;BME280;31026;43.780;25.948;2022-08-06T11:04:11;100427.03;;;24.43;57.19
45285;BME280;31026;43.780;25.948;2022-08-06T11:12:13;100426.78;;;24.61;57.23
45285;BME280;31026;43.780;25.948;2022-08-06T11:14:48;100415.69;;;24.56;57.87
45285;BME280;31026;43.780;25.948;2022-08-06T11:17:17;100413.81;;;24.56;57.36
45285;BME280;31026;43.780;25.948;2022-08-06T11:19:46;100420.19;;;24.64;57.58
45285;BME280;31026;43.780;25.948;2022-08-06T11:24:58;100416.81;;;24.61;57.84
45285;BME280;31026;43.780;25.948;2022-08-06T11:30:14;100418.13;;;24.66;57.87
45285;BME280;31026;43.780;25.948;2022-08-06T11:32:43;100398.84;;;24.69;57.85
45285;BME280;31026;43.780;25.948;2022-08-06T11:37:54;100403.00;;;24.56;58.20
45285;BME280;31026;43.780;25.948;2022-08-06T11:40:23;100408.13;;;24.51;58.84
45285;BME280;31026;43.780;25.948;2022-08-06T11:42:52;100413.72;;;24.41;59.19
45285;BME280;31026;43.780;25.948;2022-08-06T11:45:23;100411.72;;;24.12;60.16
45285;BME280;31026;43.780;25.948;2022-08-06T11:48:03;100404.44;;;24.13;60.28
45285;BME280;31026;43.780;25.948;2022-08-06T11:50:31;100411.13;;;24.25;60.57
45285;BME280;31026;43.780;25.948;2022-08-06T11:53:00;100408.66;;;24.15;60.21
45285;BME280;31026;43.780;25.948;2022-08-06T11:55:29;100419.28;;;24.17;60.44
45285;BME280;31026;43.780;25.948;2022-08-06T12:00:59;100413.44;;;24.05;60.59
45285;BME280;31026;43.780;25.948;2022-08-06T12:03:37;100389.78;;;24.07;60.43
45285;BME280;31026;43.780;25.948;2022-08-06T12:06:17;100395.25;;;23.99;60.33
45285;BME280;31026;43.780;25.948;2022-08-06T12:11:29;100395.25;;;23.99;60.05
45285;BME280;31026;43.780;25.948;2022-08-06T12:14:00;100390.44;;;24.09;59.38
45285;BME280;31026;43.780;25.948;2022-08-06T12:16:38;100392.63;;;24.14;59.68
45285;BME280;31026;43.780;25.948;2022-08-06T12:19:11;100381.22;;;24.04;59.30
45285;BME280;31026;43.780;25.948;2022-08-06T12:21:40;100385.16;;;23.93;59.61
45285;BME280;31026;43.780;25.948;2022-08-06T12:24:10;100371.66;;;23.93;59.57
45285;BME280;31026;43.780;25.948;2022-08-06T12:26:39;100382.63;;;23.91;59.26
45285;BME280;31026;43.780;25.948;2022-08-06T12:29:07;100390.88;;;23.98;59.20
45285;BME280;31026;43.780;25.948;2022-08-06T12:31:39;100369.44;;;23.96;59.15
45285;BME280;31026;43.780;25.948;2022-08-06T12:34:07;100384.81;;;23.96;58.91
45285;BME280;31026;43.780;25.948;2022-08-06T12:36:36;100381.75;;;24.53;57.99
45285;BME280;31026;43.780;25.948;2022-08-06T12:39:05;100375.94;;;24.94;56.55
45285;BME280;31026;43.780;25.948;2022-08-06T12:41:39;100371.50;;;25.16;56.38
45285;BME280;31026;43.780;25.948;2022-08-06T12:44:08;100377.13;;;25.30;56.57
45285;BME280;31026;43.780;25.948;2022-08-06T12:46:40;100370.13;;;25.35;56.54
45285;BME280;31026;43.780;25.948;2022-08-06T12:49:09;100368.56;;;25.41;56.41
45285;BME280;31026;43.780;25.948;2022-08-06T12:51:37;100360.03;;;25.44;56.68
45285;BME280;31026;43.780;25.948;2022-08-06T12:54:06;100356.31;;;25.45;56.79
45285;BME280;31026;43.780;25.948;2022-08-06T12:56:36;100366.22;;;25.53;56.87
45285;BME280;31026;43.780;25.948;2022-08-06T12:59:10;100360.03;;;25.59;56.76
45285;BME280;31026;43.780;25.948;2022-08-06T13:01:41;100350.88;;;25.60;57.04
45285;BME280;31026;43.780;25.948;2022-08-06T13:04:12;100359.53;;;25.70;56.81
45285;BME280;31026;43.780;25.948;2022-08-06T13:06:41;100351.81;;;25.67;56.89
45285;BME280;31026;43.780;25.948;2022-08-06T13:09:10;100363.09;;;25.71;57.12
45285;BME280;31026;43.780;25.948;2022-08-06T13:11:38;100368.69;;;25.69;57.48
45285;BME280;31026;43.780;25.948;2022-08-06T13:14:07;100359.75;;;25.69;57.24
45285;BME280;31026;43.780;25.948;2022-08-06T13:16:42;100359.34;;;25.72;57.60